Time;durP1;ratioP1;P1;durP2;ratioP2;P2;SDS_P1;SDS_P2;PMS_P1;PMS_P2;Temp;Humidity;BMP_temperature;BMP_pressure;BME280_temperature;BME280_humidity;BME280_pressure;Samples;Min_cycle;Max_cycle;Signal;HPM_P1;HPM_P2
2022/11/30 00:00:58;;;;;;;56.47;27.15;;;9.50;99.90;;;;;;5035545;28;20041;-85
2022/11/30 00:03:24;;;;;;;38.10;23.77;;;9.50;99.90;;;;;;5018858;28;20027;-86
2022/11/30 00:05:51;;;;;;;43.65;25.02;;;9.50;99.90;;;;;;5035378;28;20021;-85
2022/11/30 00:08:21;;;;;;;43.17;24.25;;;9.50;99.90;;;;;;5035138;28;20072;-86
2022/11/30 00:10:47;;;;;;;47.08;26.10;;;9.50;99.90;;;;;;5035299;28;20032;-85
2022/11/30 00:13:16;;;;;;;41.35;24.10;;;9.50;99.90;;;;;;5035009;28;20021;-86
2022/11/30 00:15:42;;;;;;;40.55;23.70;;;9.50;99.90;;;;;;5035414;28;20037;-86
2022/11/30 00:18:07;;;;;;;43.72;24.92;;;9.50;99.90;;;;;;5035297;28;20358;-86
2022/11/30 00:20:33;;;;;;;39.75;24.92;;;9.40;99.90;;;;;;5034572;28;20057;-86
2022/11/30 00:22:59;;;;;;;42.92;24.33;;;9.40;99.90;;;;;;5034677;28;20030;-85
2022/11/30 00:25:24;;;;;;;53.72;26.08;;;9.40;99.90;;;;;;5034994;28;20084;-85
2022/11/30 00:27:51;;;;;;;50.25;25.60;;;9.40;99.90;;;;;;5035236;28;20071;-85
2022/11/30 00:30:16;;;;;;;47.05;25.02;;;9.40;99.90;;;;;;5034604;28;20021;-86
2022/11/30 00:32:42;;;;;;;41.28;24.48;;;9.40;99.90;;;;;;5035022;28;20040;-85
2022/11/30 00:35:10;;;;;;;44.40;25.65;;;9.40;99.90;;;;;;5034544;28;20033;-85
2022/11/30 00:37:36;;;;;;;40.40;24.33;;;9.40;99.90;;;;;;5036146;28;20036;-85
2022/11/30 00:40:02;;;;;;;47.13;25.33;;;9.40;99.90;;;;;;5034856;28;20025;-85
2022/11/30 00:42:30;;;;;;;44.90;24.83;;;9.40;99.90;;;;;;5034201;28;20485;-85
2022/11/30 00:44:56;;;;;;;41.47;24.90;;;9.40;99.90;;;;;;5018127;28;20235;-86
2022/11/30 00:47:21;;;;;;;53.65;26.80;;;9.40;99.90;;;;;;5017649;28;20126;-85
2022/11/30 00:49:47;;;;;;;51.53;25.80;;;9.40;99.90;;;;;;5034336;28;20020;-85
2022/11/30 00:52:13;;;;;;;49.65;26.92;;;9.30;99.90;;;;;;5034429;28;20026;-87
2022/11/30 00:54:39;;;;;;;40.47;23.85;;;9.30;99.90;;;;;;5035453;28;20029;-85
2022/11/30 00:57:04;;;;;;;44.28;24.05;;;9.30;99.90;;;;;;5035774;28;20083;-85
2022/11/30 00:59:30;;;;;;;46.20;25.73;;;9.30;99.90;;;;;;5017988;28;20040;-85
2022/11/30 01:01:55;;;;;;;40.30;24.60;;;9.30;99.90;;;;;;5034715;28;20030;-85
2022/11/30 01:04:21;;;;;;;42.63;25.20;;;9.30;99.90;;;;;;5034984;28;20034;-85
2022/11/30 01:06:47;;;;;;;47.58;25.50;;;9.30;99.90;;;;;;5034606;28;20083;-86
2022/11/30 01:09:12;;;;;;;46.63;24.88;;;9.30;99.90;;;;;;5035620;28;20021;-85
2022/11/30 01:11:52;;;;;;;43.95;24.38;;;9.30;99.90;;;;;;5022437;28;20097;-85
2022/11/30 01:14:17;;;;;;;43.55;24.77;;;9.30;99.90;;;;;;5046489;28;20481;-84
2022/11/30 01:16:45;;;;;;;44.83;24.42;;;9.20;99.90;;;;;;5049083;28;20014;-85
2022/11/30 01:19:11;;;;;;;46.47;24.40;;;9.20;99.90;;;;;;5051954;28;20028;-86
2022/11/30 01:21:37;;;;;;;45.38;25.20;;;9.20;99.90;;;;;;5052086;28;20025;-86
2022/11/30 01:24:03;;;;;;;43.63;24.08;;;9.20;99.90;;;;;;5053359;28;20113;-85
2022/11/30 01:26:29;;;;;;;48.03;25.17;;;9.20;99.90;;;;;;5034106;28;20028;-86
2022/11/30 01:28:55;;;;;;;44.72;24.85;;;9.20;99.90;;;;;;5049917;28;20040;-85
2022/11/30 01:31:22;;;;;;;39.42;23.92;;;9.20;99.90;;;;;;5048144;28;20025;-85
2022/11/30 01:33:53;;;;;;;47.50;26.42;;;9.20;99.90;;;;;;5027514;28;20048;-85
2022/11/30 01:36:25;;;;;;;47.28;25.45;;;9.20;99.90;;;;;;5037013;28;20112;-86
2022/11/30 01:38:53;;;;;;;40.38;24.20;;;9.20;99.90;;;;;;5033914;28;20120;-85
2022/11/30 01:41:26;;;;;;;41.92;24.40;;;9.20;99.90;;;;;;5033788;28;20075;-85
2022/11/30 01:43:56;;;;;;;43.30;24.83;;;9.20;99.90;;;;;;5033445;28;20038;-83
2022/11/30 01:46:37;;;;;;;51.42;25.83;;;9.20;99.90;;;;;;5033599;28;20373;-85
2022/11/30 01:49:09;;;;;;;54.03;26.33;;;9.20;99.90;;;;;;5034088;28;20446;-84
2022/11/30 01:52:00;;;;;;;43.83;24.45;;;9.10;99.90;;;;;;5035430;28;20060;-84
2022/11/30 01:54:28;;;;;;;;;;;9.10;99.90;;;;;;5026299;28;20037;-84
2022/11/30 01:57:23;;;;;;;54.85;26.63;;;9.10;99.90;;;;;;5036717;28;20312;-85
2022/11/30 01:59:51;;;;;;;46.25;25.60;;;9.10;99.90;;;;;;5038687;28;20026;-85
2022/11/30 02:02:21;;;;;;;49.22;25.95;;;9.10;99.90;;;;;;5037567;28;20045;-85
2022/11/30 02:04:47;;;;;;;49.42;26.65;;;9.10;99.90;;;;;;5036740;28;20022;-85
2022/11/30 02:07:13;;;;;;;48.28;27.10;;;9.10;99.90;;;;;;5039506;28;20093;-85
2022/11/30 02:09:43;;;;;;;45.08;24.23;;;9.10;99.90;;;;;;5020013;28;20029;-85
2022/11/30 02:12:25;;;;;;;51.83;25.57;;;9.00;99.90;;;;;;5034453;28;20021;-85
2022/11/30 02:14:56;;;;;;;44.35;24.30;;;9.00;99.90;;;;;;5033930;28;20025;-85
2022/11/30 02:17:31;;;;;;;38.53;22.88;;;9.00;99.90;;;;;;5033830;28;20033;-85
2022/11/30 02:20:20;;;;;;;50.80;25.20;;;9.00;99.90;;;;;;5033203;28;20028;-85
2022/11/30 02:22:46;;;;;;;41.58;23.25;;;9.00;99.90;;;;;;5021967;28;20090;-84
2022/11/30 02:25:22;;;;;;;47.70;24.23;;;9.00;99.90;;;;;;5036075;28;20025;-85
2022/11/30 02:27:58;;;;;;;50.63;25.23;;;9.00;99.90;;;;;;5036947;28;20029;-85
2022/11/30 02:30:24;;;;;;;45.63;24.45;;;9.00;99.90;;;;;;5040119;28;20036;-85
2022/11/30 02:33:01;;;;;;;40.65;24.35;;;9.00;99.90;;;;;;5041210;28;20033;-85
2022/11/30 02:35:33;;;;;;;47.53;24.58;;;9.00;99.90;;;;;;5039108;28;20025;-85
2022/11/30 02:38:03;;;;;;;40.13;23.67;;;9.00;99.90;;;;;;5040601;28;20035;-84
2022/11/30 02:40:32;;;;;;;42.70;23.77;;;9.00;99.90;;;;;;5038963;28;20033;-85
2022/11/30 02:43:03;;;;;;;45.08;24.63;;;8.90;99.90;;;;;;5039301;28;20141;-84
2022/11/30 02:45:52;;;;;;;47.13;25.58;;;8.90;99.90;;;;;;5033743;28;20120;-85
2022/11/30 02:48:27;;;;;;;46.40;23.85;;;8.90;99.90;;;;;;5032711;28;20033;-85
2022/11/30 02:50:58;;;;;;;38.95;23.75;;;8.90;99.90;;;;;;5034210;28;20018;-84
2022/11/30 02:53:24;;;;;;;;;;;8.90;99.90;;;;;;5034365;28;20045;-85
2022/11/30 02:55:50;;;;;;;35.78;22.38;;;8.90;99.90;;;;;;5032669;28;19956;-84
2022/11/30 02:58:16;;;;;;;41.28;22.70;;;8.90;99.90;;;;;;5032370;28;20033;-85
2022/11/30 03:00:44;;;;;;;42.03;23.30;;;8.90;99.90;;;;;;5032090;28;20029;-85
2022/11/30 03:03:10;;;;;;;42.20;23.45;;;8.90;99.90;;;;;;5032697;28;20539;-85
2022/11/30 03:05:35;;;;;;;41.75;24.15;;;8.90;99.90;;;;;;5032085;28;20033;-85
2022/11/30 03:08:01;;;;;;;39.63;22.48;;;8.90;99.90;;;;;;5031900;28;20350;-84
2022/11/30 03:10:27;;;;;;;40.05;23.10;;;8.90;99.90;;;;;;5015678;28;20053;-84
2022/11/30 03:12:56;;;;;;;43.55;23.67;;;8.90;99.90;;;;;;5032044;28;20454;-84
2022/11/30 03:15:24;;;;;;;44.22;23.95;;;8.90;99.90;;;;;;5017093;28;20479;-84
2022/11/30 03:17:50;;;;;;;44.40;24.25;;;8.90;99.90;;;;;;5033168;28;20033;-85
2022/11/30 03:20:15;;;;;;;38.70;23.25;;;8.90;99.90;;;;;;5015817;28;20036;-85
2022/11/30 03:22:41;;;;;;;44.97;24.58;;;8.90;99.90;;;;;;5031992;28;20036;-86
2022/11/30 03:25:07;;;;;;;44.35;24.05;;;8.90;99.90;;;;;;5032026;28;20556;-85
2022/11/30 03:27:33;;;;;;;49.05;25.02;;;8.90;99.90;;;;;;5031922;28;20038;-86
2022/11/30 03:29:59;;;;;;;47.03;24.75;;;8.90;99.90;;;;;;5033261;28;20385;-85
2022/11/30 03:32:24;;;;;;;48.08;24.40;;;8.90;99.90;;;;;;5032142;28;20041;-85
2022/11/30 03:34:50;;;;;;;43.50;23.75;;;8.90;99.90;;;;;;5031491;28;20080;-85
2022/11/30 03:37:16;;;;;;;43.72;23.77;;;8.90;99.90;;;;;;5032981;28;20026;-85
2022/11/30 03:39:41;;;;;;;41.25;23.33;;;8.90;99.90;;;;;;5031524;28;20105;-86
2022/11/30 03:42:07;;;;;;;43.50;24.27;;;8.80;99.90;;;;;;5031423;28;20072;-84
2022/11/30 03:44:33;;;;;;;38.67;22.27;;;8.80;99.90;;;;;;5031991;28;20030;-87
2022/11/30 03:46:58;;;;;;;40.50;22.80;;;8.90;99.90;;;;;;5031605;28;20029;-86
2022/11/30 03:49:24;;;;;;;46.05;23.60;;;8.80;99.90;;;;;;5032063;28;20037;-85
2022/11/30 03:51:50;;;;;;;49.97;24.17;;;8.80;99.90;;;;;;5033007;28;20041;-86
2022/11/30 03:54:15;;;;;;;43.20;23.92;;;8.80;99.90;;;;;;5032222;28;20025;-86
2022/11/30 03:56:41;;;;;;;42.53;22.92;;;8.80;99.90;;;;;;4999416;28;20034;-86
2022/11/30 03:59:07;;;;;;;46.08;23.80;;;8.80;99.90;;;;;;5031623;28;20029;-86
2022/11/30 04:01:32;;;;;;;44.05;22.63;;;8.80;99.90;;;;;;5015290;28;20085;-86
2022/11/30 04:03:58;;;;;;;42.88;22.65;;;8.70;99.90;;;;;;4998770;28;20026;-85
2022/11/30 04:06:24;;;;;;;54.88;24.20;;;8.70;99.90;;;;;;5031272;28;20481;-85
2022/11/30 04:08:50;;;;;;;46.50;23.73;;;8.70;99.90;;;;;;5015062;28;20025;-85
2022/11/30 04:11:16;;;;;;;40.40;21.42;;;8.70;99.90;;;;;;4998415;28;20025;-85
2022/11/30 04:13:42;;;;;;;53.20;25.00;;;8.70;99.90;;;;;;5030972;28;20017;-85
2022/11/30 04:16:08;;;;;;;43.90;23.42;;;8.60;99.90;;;;;;5031361;28;20025;-85
2022/11/30 04:18:35;;;;;;;43.67;24.00;;;8.60;99.90;;;;;;5015134;28;20469;-85
2022/11/30 04:21:05;;;;;;;38.88;21.77;;;8.60;99.90;;;;;;5032139;28;20026;-85
2022/11/30 04:23:37;;;;;;;40.70;23.30;;;8.50;99.90;;;;;;5034956;28;20037;-86
2022/11/30 04:26:09;;;;;;;57.60;26.40;;;8.50;99.90;;;;;;5036117;28;20025;-86
2022/11/30 04:28:35;;;;;;;49.85;24.42;;;8.40;99.90;;;;;;5034846;28;20363;-85
2022/11/30 04:31:03;;;;;;;51.35;24.63;;;8.40;99.90;;;;;;5018282;28;20071;-85
2022/11/30 04:33:29;;;;;;;43.67;22.30;;;8.30;99.90;;;;;;5018843;28;20021;-86
2022/11/30 04:35:57;;;;;;;39.20;21.33;;;8.30;99.90;;;;;;5034459;28;20354;-86
2022/11/30 04:38:26;;;;;;;37.22;21.23;;;8.30;99.90;;;;;;5035802;28;20035;-85
2022/11/30 04:40:52;;;;;;;43.53;22.60;;;8.30;99.90;;;;;;5034569;28;20087;-85
2022/11/30 04:43:18;;;;;;;47.58;23.33;;;8.20;99.90;;;;;;5035162;28;20049;-86
2022/11/30 04:45:44;;;;;;;48.65;22.95;;;8.20;99.90;;;;;;5018184;28;20112;-86
2022/11/30 04:48:10;;;;;;;50.97;22.33;;;8.20;99.90;;;;;;5035865;28;20112;-86
2022/11/30 04:50:36;;;;;;;41.88;21.45;;;8.10;99.90;;;;;;5034406;28;20030;-85
2022/11/30 04:53:02;;;;;;;48.25;22.95;;;8.10;99.90;;;;;;5033879;28;20055;-85
2022/11/30 04:55:28;;;;;;;43.15;21.13;;;8.10;99.90;;;;;;5017887;28;20127;-85
2022/11/30 04:57:54;;;;;;;37.55;20.42;;;8.10;99.90;;;;;;5033961;28;20029;-85
2022/11/30 05:00:20;;;;;;;38.63;22.45;;;8.10;99.90;;;;;;5017588;28;20030;-85
2022/11/30 05:02:46;;;;;;;45.15;21.88;;;8.00;99.90;;;;;;5035433;28;20033;-86
2022/11/30 05:05:12;;;;;;;42.42;21.35;;;8.00;99.90;;;;;;5034197;28;20037;-85
2022/11/30 05:07:38;;;;;;;39.30;22.02;;;8.00;99.90;;;;;;5034297;28;20022;-85
2022/11/30 05:10:05;;;;;;;36.95;19.98;;;7.90;99.90;;;;;;5017475;28;20076;-85
2022/11/30 05:12:31;;;;;;;34.00;20.13;;;7.90;99.90;;;;;;5034065;28;20033;-86
2022/11/30 05:14:57;;;;;;;44.65;22.30;;;7.90;99.90;;;;;;5001152;28;20033;-85
2022/11/30 05:17:22;;;;;;;48.80;23.50;;;7.90;99.90;;;;;;5017777;28;20036;-85
2022/11/30 05:19:48;;;;;;;43.55;21.55;;;7.80;99.90;;;;;;5017239;28;20026;-85
2022/11/30 05:22:14;;;;;;;44.92;23.05;;;7.80;99.90;;;;;;5017410;28;20359;-85
2022/11/30 05:24:39;;;;;;;41.15;21.95;;;7.80;99.90;;;;;;5001139;28;20084;-85
2022/11/30 05:27:05;;;;;;;45.03;23.75;;;7.80;99.90;;;;;;5033696;28;20048;-85
2022/11/30 05:29:33;;;;;;;44.88;21.88;;;7.70;99.90;;;;;;5017231;28;20022;-86
2022/11/30 05:32:00;;;;;;;49.00;23.13;;;7.70;99.90;;;;;;5017134;28;20504;-85
2022/11/30 05:34:26;;;;;;;47.78;22.75;;;7.70;99.90;;;;;;5032535;28;20034;-86
2022/11/30 05:36:51;;;;;;;48.88;22.45;;;7.70;99.90;;;;;;5023470;28;20385;-86
2022/11/30 05:39:17;;;;;;;46.50;22.83;;;7.60;99.90;;;;;;5033217;28;20071;-85
2022/11/30 05:41:42;;;;;;;41.88;22.23;;;7.60;99.90;;;;;;5017253;28;20499;-85
2022/11/30 05:44:08;;;;;;;38.83;21.23;;;7.60;99.90;;;;;;5016793;28;20073;-85
2022/11/30 05:46:34;;;;;;;40.20;22.17;;;7.60;99.90;;;;;;5033390;28;20061;-85
2022/11/30 05:49:00;;;;;;;43.40;23.38;;;7.60;99.90;;;;;;5033249;28;20033;-85
2022/11/30 05:51:25;;;;;;;43.28;21.90;;;7.60;99.90;;;;;;5033319;28;20116;-85
2022/11/30 05:53:51;;;;;;;48.65;23.48;;;7.50;99.90;;;;;;5034415;28;20022;-85
2022/11/30 05:56:19;;;;;;;64.75;25.33;;;7.50;99.90;;;;;;5016856;28;20541;-85
2022/11/30 05:58:45;;;;;;;43.38;22.50;;;7.50;99.90;;;;;;5017234;28;20036;-86
2022/11/30 06:01:25;;;;;;;44.53;21.60;;;7.50;99.90;;;;;;5034278;28;20450;-85
2022/11/30 06:03:51;;;;;;;41.30;21.63;;;7.50;99.90;;;;;;5033747;28;20056;-86
2022/11/30 06:06:18;;;;;;;48.88;23.92;;;7.50;99.90;;;;;;5033827;28;20435;-86
2022/11/30 06:08:45;;;;;;;43.75;22.73;;;7.50;99.90;;;;;;5035258;28;20028;-86
2022/11/30 06:11:12;;;;;;;37.42;21.88;;;7.40;99.90;;;;;;5034148;28;20446;-83
2022/11/30 06:13:41;;;;;;;40.65;22.30;;;7.40;99.90;;;;;;5035214;28;20032;-85
2022/11/30 06:16:07;;;;;;;39.38;21.67;;;7.40;99.90;;;;;;5033264;28;20034;-84
2022/11/30 06:18:34;;;;;;;37.95;20.67;;;7.30;99.90;;;;;;5033028;28;20034;-84
2022/11/30 06:21:01;;;;;;;41.05;22.08;;;7.30;99.90;;;;;;5016474;28;20117;-85
2022/11/30 06:23:27;;;;;;;54.80;23.83;;;7.30;99.90;;;;;;5032814;28;20416;-84
2022/11/30 06:25:53;;;;;;;39.00;21.50;;;7.30;99.90;;;;;;5032649;28;20025;-85
2022/11/30 06:28:19;;;;;;;44.53;23.05;;;7.30;99.90;;;;;;5032500;28;20029;-85
2022/11/30 06:30:44;;;;;;;52.00;25.83;;;7.20;99.90;;;;;;5013552;28;20176;-84
2022/11/30 06:33:10;;;;;;;52.33;24.52;;;7.20;99.90;;;;;;5024971;28;20108;-84
2022/11/30 06:35:36;;;;;;;48.63;23.48;;;7.20;99.90;;;;;;5033409;28;20098;-86
2022/11/30 06:38:01;;;;;;;46.08;23.05;;;7.20;99.90;;;;;;5031333;28;20103;-85
2022/11/30 06:40:27;;;;;;;39.80;21.95;;;7.20;99.90;;;;;;5014656;28;20029;-85
2022/11/30 06:42:53;;;;;;;47.60;23.50;;;7.20;99.90;;;;;;5030604;28;20409;-85
2022/11/30 06:45:19;;;;;;;40.35;23.33;;;7.10;99.90;;;;;;5031691;28;20167;-85
2022/11/30 06:47:45;;;;;;;42.88;23.23;;;7.10;99.90;;;;;;5032257;28;20164;-85
2022/11/30 06:50:13;;;;;;;45.28;22.35;;;7.10;99.90;;;;;;5033885;28;20056;-85
2022/11/30 06:52:39;;;;;;;40.58;21.45;;;7.10;99.90;;;;;;5032283;28;20033;-86
2022/11/30 06:55:05;;;;;;;44.10;22.20;;;7.10;99.90;;;;;;5033330;28;20401;-85
2022/11/30 06:57:31;;;;;;;40.83;21.42;;;7.00;99.90;;;;;;5027248;28;20034;-86
2022/11/30 06:59:57;;;;;;;47.38;23.25;;;7.00;99.90;;;;;;5030935;28;20044;-85
2022/11/30 07:02:23;;;;;;;36.08;20.25;;;7.00;99.90;;;;;;5015861;28;20041;-85
2022/11/30 07:04:50;;;;;;;42.50;20.63;;;7.00;99.90;;;;;;5031198;28;20052;-85
2022/11/30 07:07:16;;;;;;;41.47;20.38;;;6.90;99.90;;;;;;5012349;28;20025;-86
2022/11/30 07:09:41;;;;;;;45.78;22.60;;;6.90;99.90;;;;;;5031860;28;20053;-86
2022/11/30 07:12:12;;;;;;;35.85;21.10;;;6.90;99.90;;;;;;5015911;28;20034;-86
2022/11/30 07:14:40;;;;;;;37.95;19.77;;;6.90;99.90;;;;;;5028193;28;20029;-85
2022/11/30 07:17:06;;;;;;;35.72;20.02;;;6.80;99.90;;;;;;5011464;28;20030;-85
2022/11/30 07:19:34;;;;;;;37.33;21.55;;;6.80;99.90;;;;;;4995154;28;20037;-86
2022/11/30 07:22:00;;;;;;;45.42;22.33;;;6.80;99.90;;;;;;5011858;28;20034;-86
2022/11/30 07:27:10;;;;;;;35.83;20.40;;;6.80;99.90;;;;;;5013206;28;20100;-86
2022/11/30 07:29:36;;;;;;;40.42;21.83;;;6.80;99.90;;;;;;4995988;28;20433;-86
2022/11/30 07:32:01;;;;;;;33.08;19.02;;;6.70;99.90;;;;;;5002131;28;20555;-87
2022/11/30 07:34:29;;;;;;;42.65;22.63;;;6.70;99.90;;;;;;5014600;28;20529;-87
2022/11/30 07:36:55;;;;;;;39.03;20.90;;;6.70;99.90;;;;;;5031403;28;20053;-86
2022/11/30 07:39:23;;;;;;;48.75;22.40;;;6.70;99.90;;;;;;5031777;28;20064;-86
2022/11/30 07:41:49;;;;;;;38.97;22.65;;;6.70;99.90;;;;;;5014736;28;20038;-86
2022/11/30 07:44:15;;;;;;;47.38;22.60;;;6.70;99.90;;;;;;5013759;28;20480;-85
2022/11/30 07:46:41;;;;;;;58.97;22.98;;;6.70;99.90;;;;;;5031819;28;20057;-85
2022/11/30 07:49:09;;;;;;;50.25;23.05;;;6.70;99.90;;;;;;5031313;28;20061;-84
2022/11/30 07:51:35;;;;;;;42.33;22.40;;;6.70;99.90;;;;;;5031438;28;20037;-87
2022/11/30 07:54:01;;;;;;;42.13;21.55;;;6.70;99.90;;;;;;5013567;28;20028;-84
2022/11/30 07:56:28;;;;;;;39.30;20.20;;;6.70;99.90;;;;;;5033911;28;20190;-85
2022/11/30 07:58:56;;;;;;;52.60;22.98;;;6.70;99.90;;;;;;5031813;28;20110;-84
2022/11/30 08:01:24;;;;;;;46.97;21.63;;;6.70;99.90;;;;;;5033911;28;21054;-84
2022/11/30 08:03:50;;;;;;;35.95;20.15;;;6.70;99.90;;;;;;5033523;28;20017;-84
2022/11/30 08:06:19;;;;;;;44.05;22.48;;;6.70;99.90;;;;;;5035669;28;20029;-84
2022/11/30 08:08:46;;;;;;;36.30;20.73;;;6.70;99.90;;;;;;5033052;28;20440;-84
2022/11/30 08:11:14;;;;;;;44.95;22.63;;;6.80;99.90;;;;;;5034182;28;20030;-83
2022/11/30 08:13:40;;;;;;;45.58;22.90;;;6.80;99.90;;;;;;5017412;28;20110;-82
2022/11/30 08:16:11;;;;;;;45.33;22.33;;;6.80;99.90;;;;;;5036239;28;20100;-84
2022/11/30 08:18:38;;;;;;;53.55;23.35;;;6.80;99.90;;;;;;5018450;28;20037;-84
2022/11/30 08:21:05;;;;;;;50.38;24.70;;;6.80;99.90;;;;;;5034974;28;20021;-83
2022/11/30 08:23:36;;;;;;;48.88;23.70;;;6.80;99.90;;;;;;5033646;28;20044;-84
2022/11/30 08:26:05;;;;;;;;;;;6.90;99.90;;;;;;5030390;28;20037;-85
2022/11/30 08:28:31;;;;;;;50.30;23.95;;;6.90;99.90;;;;;;5035189;28;19905;-85
2022/11/30 08:31:02;;;;;;;41.60;21.88;;;6.90;99.90;;;;;;5033850;28;20056;-85
2022/11/30 08:33:29;;;;;;;;;;;6.90;99.90;;;;;;5015445;28;20512;-84
2022/11/30 08:36:04;;;;;;;37.90;20.27;;;6.90;99.90;;;;;;5033701;28;20246;-84
2022/11/30 08:38:32;;;;;;;40.03;21.83;;;6.90;99.90;;;;;;5034347;28;20022;-84
2022/11/30 08:40:58;;;;;;;46.35;22.30;;;6.90;99.90;;;;;;5030235;28;20100;-84
2022/11/30 08:43:27;;;;;;;44.25;22.10;;;7.00;99.90;;;;;;5032904;28;20137;-85
2022/11/30 08:45:52;;;;;;;40.05;21.88;;;7.00;99.90;;;;;;5035271;28;20043;-84
2022/11/30 08:48:19;;;;;;;42.58;21.15;;;7.00;99.90;;;;;;5034874;28;20100;-85
2022/11/30 08:50:47;;;;;;;43.45;22.98;;;7.00;99.90;;;;;;5034964;28;20021;-85
2022/11/30 08:53:13;;;;;;;44.55;22.63;;;7.00;99.90;;;;;;5016313;28;20098;-85
2022/11/30 08:55:39;;;;;;;43.83;22.77;;;7.00;99.90;;;;;;5032619;28;20029;-85
2022/11/30 08:58:10;;;;;;;44.63;24.08;;;7.10;99.90;;;;;;5018046;28;20029;-89
2022/11/30 09:00:35;;;;;;;;;;;7.10;99.90;;;;;;5019594;28;20060;-91
2022/11/30 09:03:01;;;;;;;43.78;22.25;;;7.10;99.90;;;;;;5016756;28;20006;-85
2022/11/30 09:05:27;;;;;;;45.38;23.48;;;7.10;99.90;;;;;;5032811;28;20041;-85
2022/11/30 09:07:55;;;;;;;51.13;24.50;;;7.20;99.90;;;;;;5032639;28;20029;-86
2022/11/30 09:10:20;;;;;;;46.67;24.50;;;7.20;99.90;;;;;;5034262;28;20021;-84
2022/11/30 09:12:46;;;;;;;43.10;23.27;;;7.20;99.90;;;;;;5033068;28;20390;-84
2022/11/30 09:15:11;;;;;;;49.78;25.00;;;7.20;99.90;;;;;;5032900;28;20029;-84
2022/11/30 09:17:37;;;;;;;55.67;26.17;;;7.20;99.90;;;;;;5016909;28;20033;-84
2022/11/30 09:20:03;;;;;;;45.00;24.92;;;7.30;99.90;;;;;;5033411;28;20462;-85
2022/11/30 09:22:31;;;;;;;45.78;25.08;;;7.30;99.90;;;;;;5033452;28;20048;-84
2022/11/30 09:24:57;;;;;;;46.35;24.98;;;7.30;99.90;;;;;;5026490;28;20124;-84
2022/11/30 09:27:23;;;;;;;46.95;24.27;;;7.40;99.90;;;;;;5033134;28;20061;-84
2022/11/30 09:29:49;;;;;;;52.42;25.42;;;7.40;99.90;;;;;;5016622;28;20040;-84
2022/11/30 09:32:14;;;;;;;49.58;25.80;;;7.40;99.90;;;;;;5032624;28;20041;-85
2022/11/30 09:34:41;;;;;;;50.75;25.90;;;7.40;99.90;;;;;;5015792;28;20029;-85
2022/11/30 09:37:08;;;;;;;53.65;25.83;;;7.40;99.90;;;;;;5034409;28;20025;-84
2022/11/30 09:39:33;;;;;;;49.78;26.13;;;7.50;99.90;;;;;;5016734;28;20040;-84
2022/11/30 09:42:25;;;;;;;54.47;27.67;;;7.50;99.90;;;;;;5016342;28;20033;-84
2022/11/30 09:45:00;;;;;;;58.78;27.98;;;7.50;99.90;;;;;;5033350;28;20068;-85
2022/11/30 09:47:25;;;;;;;76.78;31.73;;;7.50;99.90;;;;;;5032800;28;20033;-84
2022/11/30 09:49:51;;;;;;;66.90;29.67;;;7.50;99.90;;;;;;5033276;28;20021;-85
2022/11/30 09:52:36;;;;;;;60.55;27.45;;;7.60;99.90;;;;;;5001784;28;20037;-83
2022/11/30 09:55:08;;;;;;;63.33;28.33;;;7.60;99.90;;;;;;5033535;28;20018;-84
2022/11/30 09:57:48;;;;;;;81.43;31.08;;;7.60;99.90;;;;;;5033196;28;20025;-83
2022/11/30 10:00:23;;;;;;;74.13;30.70;;;7.60;99.90;;;;;;5013284;28;20026;-87
2022/11/30 10:02:50;;;;;;;61.17;28.25;;;7.60;99.90;;;;;;5037831;28;20496;-82
2022/11/30 10:05:41;;;;;;;62.10;29.92;;;7.70;99.90;;;;;;5032990;28;20025;-83
2022/11/30 10:08:35;;;;;;;74.20;29.38;;;7.70;99.90;;;;;;5033801;28;20163;-84
2022/11/30 10:11:42;;;;;;;67.55;29.33;;;7.70;99.90;;;;;;5034059;28;20139;-83
2022/11/30 10:14:30;;;;;;;67.57;29.30;;;7.70;99.90;;;;;;5032294;28;20053;-84
2022/11/30 10:17:10;;;;;;;71.35;29.15;;;7.70;99.90;;;;;;5030214;28;20029;-83
2022/11/30 10:20:13;;;;;;;65.45;29.52;;;7.80;99.90;;;;;;5031035;28;20028;-83
2022/11/30 10:22:57;;;;;;;73.57;31.33;;;7.80;99.90;;;;;;5022350;28;20041;-85
2022/11/30 10:25:38;;;;;;;66.43;30.50;;;7.80;99.90;;;;;;5033155;28;20029;-83
2022/11/30 10:28:13;;;;;;;67.43;29.98;;;7.90;99.90;;;;;;5025327;28;20022;-84
2022/11/30 10:30:39;;;;;;;64.20;29.23;;;7.90;99.90;;;;;;5031497;28;20032;-84
2022/11/30 10:33:21;;;;;;;66.82;29.58;;;8.00;99.90;;;;;;5015224;28;20124;-85
2022/11/30 10:35:56;;;;;;;69.25;30.30;;;8.00;99.90;;;;;;5031693;28;20026;-84
2022/11/30 10:38:33;;;;;;;73.95;30.48;;;8.10;99.90;;;;;;5031761;28;20025;-84
2022/11/30 10:41:23;;;;;;;68.20;29.65;;;8.10;99.90;;;;;;5031778;28;20083;-84
2022/11/30 10:44:01;;;;;;;64.13;29.20;;;8.20;99.90;;;;;;5029156;28;20545;-84
2022/11/30 10:46:32;;;;;;;56.17;27.38;;;8.30;99.90;;;;;;5032686;28;20028;-84
2022/11/30 10:49:11;;;;;;;60.30;28.25;;;8.30;99.90;;;;;;5031843;28;20029;-84
2022/11/30 10:51:41;;;;;;;57.90;26.33;;;8.30;99.90;;;;;;5025094;28;20026;-83
2022/11/30 10:54:22;;;;;;;56.67;25.65;;;8.40;99.90;;;;;;5020725;28;20033;-83
2022/11/30 10:56:47;;;;;;;55.47;25.63;;;8.50;99.90;;;;;;5030966;28;20096;-84
2022/11/30 10:59:32;;;;;;;54.40;26.85;;;8.50;99.90;;;;;;5030973;28;20129;-85
2022/11/30 11:01:58;;;;;;;55.05;26.63;;;8.50;99.90;;;;;;5030985;28;20156;-84
2022/11/30 11:04:26;;;;;;;54.42;26.23;;;8.60;99.90;;;;;;5031878;28;20104;-85
2022/11/30 11:06:53;;;;;;;56.22;26.65;;;8.70;99.90;;;;;;5031267;28;20017;-84
2022/11/30 11:09:47;;;;;;;41.15;22.92;;;8.80;99.90;;;;;;5031414;28;20108;-86
2022/11/30 11:12:29;;;;;;;39.85;22.25;;;8.90;99.90;;;;;;5030588;28;21000;-84
2022/11/30 11:15:16;;;;;;;47.65;22.13;;;8.90;99.90;;;;;;5028340;28;20171;-88
2022/11/30 11:17:42;;;;;;;38.53;20.58;;;9.00;99.90;;;;;;5027302;28;20117;-84
2022/11/30 11:20:28;;;;;;;39.72;21.88;;;9.10;99.90;;;;;;5013299;28;20116;-85
2022/11/30 11:22:54;;;;;;;38.65;21.50;;;9.20;99.90;;;;;;5032490;28;20378;-85
2022/11/30 11:25:32;;;;;;;37.72;21.27;;;9.30;99.90;;;;;;5015176;28;20033;-83
2022/11/30 11:28:17;;;;;;;37.25;20.63;;;9.30;99.90;;;;;;5027735;28;20064;-84
2022/11/30 11:30:43;;;;;;;33.67;19.13;;;9.40;99.90;;;;;;5033256;28;20473;-84
2022/11/30 11:33:14;;;;;;;35.78;20.42;;;9.50;99.90;;;;;;5034347;28;20053;-82
2022/11/30 11:35:44;;;;;;;38.20;20.25;;;9.50;99.90;;;;;;5032911;28;20033;-85
2022/11/30 11:38:22;;;;;;;35.33;21.08;;;9.60;99.90;;;;;;5034345;28;20021;-84
2022/11/30 11:41:00;;;;;;;32.17;19.38;;;9.60;99.90;;;;;;5035249;28;20109;-82
2022/11/30 11:43:31;;;;;;;29.95;18.75;;;9.70;99.90;;;;;;5035602;28;20098;-84
2022/11/30 11:45:58;;;;;;;;;;;9.70;99.90;;;;;;5037183;28;20462;-83
2022/11/30 11:48:32;;;;;;;33.67;19.30;;;9.70;99.90;;;;;;5034923;28;19905;-83
2022/11/30 11:51:09;;;;;;;33.97;19.35;;;9.70;99.90;;;;;;5035065;28;20030;-83
2022/11/30 11:53:35;;;;;;;28.98;19.60;;;9.70;99.90;;;;;;5030495;28;20489;-87
2022/11/30 11:56:10;;;;;;;32.97;20.13;;;9.80;99.90;;;;;;5033689;28;20028;-83
2022/11/30 11:58:52;;;;;;;32.78;20.70;;;9.90;99.90;;;;;;5030807;28;20033;-84
2022/11/30 12:01:44;;;;;;;32.10;19.02;;;9.90;99.90;;;;;;5028441;28;20369;-83
2022/11/30 12:04:31;;;;;;;29.30;18.48;;;10.00;99.90;;;;;;5031383;28;20025;-85
2022/11/30 12:07:00;;;;;;;30.98;18.73;;;10.00;99.90;;;;;;5031447;28;20452;-85
2022/11/30 12:09:38;;;;;;;31.05;19.58;;;10.00;99.90;;;;;;5034459;28;20466;-85
2022/11/30 12:12:04;;;;;;;29.45;18.52;;;10.00;99.90;;;;;;5025659;28;20053;-83
2022/11/30 12:14:32;;;;;;;28.38;18.30;;;10.00;99.90;;;;;;5033985;28;20057;-83
2022/11/30 12:17:30;;;;;;;26.52;17.23;;;10.10;99.90;;;;;;5017016;28;20040;-84
2022/11/30 12:20:13;;;;;;;29.08;17.75;;;10.10;99.90;;;;;;5030128;28;20040;-83
2022/11/30 12:23:01;;;;;;;28.52;17.05;;;10.10;99.90;;;;;;5049994;28;20048;-84
2022/11/30 12:25:32;;;;;;;26.77;16.45;;;10.10;99.90;;;;;;5032120;28;20099;-84
2022/11/30 12:28:24;;;;;;;26.02;16.77;;;10.10;99.90;;;;;;5025204;28;20029;-83
2022/11/30 12:31:16;;;;;;;26.38;17.05;;;10.10;99.90;;;;;;5032732;28;20079;-82
2022/11/30 12:33:59;;;;;;;29.60;16.60;;;10.10;99.90;;;;;;5031700;28;20040;-82
2022/11/30 12:36:54;;;;;;;27.30;17.83;;;10.00;99.90;;;;;;5034064;28;20029;-83
2022/11/30 12:39:22;;;;;;;27.60;18.05;;;10.10;99.90;;;;;;5030878;28;20037;-87
2022/11/30 12:41:58;;;;;;;26.92;16.90;;;10.10;99.90;;;;;;5030777;28;20060;-82
2022/11/30 12:44:44;;;;;;;29.92;18.30;;;10.10;99.90;;;;;;5032870;28;20038;-81
2022/11/30 12:47:57;;;;;;;26.52;17.25;;;10.10;99.90;;;;;;5033274;28;20429;-82
2022/11/30 12:50:41;;;;;;;28.17;17.52;;;10.10;99.90;;;;;;5003968;28;20041;-82
2022/11/30 12:53:30;;;;;;;27.75;17.60;;;10.10;99.90;;;;;;5031036;28;20116;-82
2022/11/30 12:56:05;;;;;;;27.88;17.42;;;10.10;99.90;;;;;;5023993;28;20504;-81